Time;durP1;ratioP1;P1;durP2;ratioP2;P2;SDS_P1;SDS_P2;PMS_P1;PMS_P2;Temp;Humidity;BMP_temperature;BMP_pressure;BME280_temperature;BME280_humidity;BME280_pressure;Samples;Min_cycle;Max_cycle;Signal;HPM_P1;HPM_P2
2024/02/15 00:02:19;;;;;;;1.77;0.70;;;15.40;72.90;;;;;;4650186;30;20065;-76
2024/02/15 00:05:04;;;;;;;0.75;0.70;;;15.40;73.00;;;;;;4645614;30;20412;-76
2024/02/15 00:07:50;;;;;;;1.63;0.70;;;15.40;73.00;;;;;;4629756;30;20091;-76
2024/02/15 00:10:34;;;;;;;1.35;0.85;;;15.40;73.00;;;;;;4645887;30;20069;-76
2024/02/15 00:13:19;;;;;;;1.55;0.80;;;15.40;73.10;;;;;;4644439;30;20042;-76
2024/02/15 00:16:03;;;;;;;1.23;0.95;;;15.30;72.90;;;;;;4645151;30;20408;-76
2024/02/15 00:18:49;;;;;;;0.80;0.70;;;15.30;73.00;;;;;;4647419;30;20491;-77
2024/02/15 00:21:35;;;;;;;1.15;1.00;;;15.30;73.10;;;;;;4633103;30;20065;-76
2024/02/15 00:24:19;;;;;;;0.93;0.77;;;15.30;73.00;;;;;;4647017;30;20071;-76
2024/02/15 00:27:04;;;;;;;0.77;0.77;;;15.30;73.00;;;;;;4632017;30;20064;-77
2024/02/15 00:29:48;;;;;;;0.63;0.60;;;15.30;73.10;;;;;;4647142;30;20052;-76
2024/02/15 00:32:34;;;;;;;0.65;0.60;;;15.30;73.10;;;;;;4637287;30;20152;-76
2024/02/15 00:35:18;;;;;;;0.60;0.60;;;15.30;73.10;;;;;;4643564;30;20046;-76
2024/02/15 00:38:03;;;;;;;0.57;0.57;;;15.30;73.10;;;;;;4644450;30;20078;-76
2024/02/15 00:40:48;;;;;;;0.70;0.70;;;15.30;73.20;;;;;;4650327;30;20552;-76
2024/02/15 00:43:35;;;;;;;0.93;0.88;;;15.30;73.20;;;;;;4646805;30;20057;-75
2024/02/15 00:46:19;;;;;;;0.60;0.57;;;15.30;73.20;;;;;;4643008;30;20046;-76
2024/02/15 00:49:06;;;;;;;0.50;0.50;;;15.30;73.20;;;;;;4637757;30;20133;-76
2024/02/15 00:51:50;;;;;;;1.58;1.23;;;15.30;73.30;;;;;;4643096;30;20069;-76
2024/02/15 00:54:35;;;;;;;0.55;0.55;;;15.30;73.30;;;;;;4651855;30;20073;-77
2024/02/15 00:57:20;;;;;;;0.50;0.50;;;15.30;73.30;;;;;;4642851;30;20045;-77
2024/02/15 01:00:06;;;;;;;0.50;0.50;;;15.30;73.30;;;;;;4642587;30;20121;-77
2024/02/15 01:02:50;;;;;;;0.50;0.40;;;15.30;73.30;;;;;;4637440;30;20065;-77
2024/02/15 01:05:34;;;;;;;0.70;0.50;;;15.20;73.20;;;;;;4647770;30;20110;-77
2024/02/15 01:08:20;;;;;;;0.40;0.40;;;15.20;73.20;;;;;;4650114;30;20049;-79
2024/02/15 01:11:04;;;;;;;0.40;0.40;;;15.20;73.20;;;;;;4637753;30;20061;-77
2024/02/15 01:13:51;;;;;;;0.40;0.40;;;15.20;73.30;;;;;;4639756;30;20128;-77
2024/02/15 01:16:36;;;;;;;0.50;0.50;;;15.20;73.30;;;;;;4650134;30;20412;-77
2024/02/15 01:19:20;;;;;;;0.47;0.47;;;15.20;73.30;;;;;;4634365;30;20367;-77
2024/02/15 01:22:06;;;;;;;0.57;0.50;;;15.20;73.30;;;;;;4636462;30;20062;-77
2024/02/15 01:24:51;;;;;;;1.13;0.38;;;15.20;73.40;;;;;;4645655;30;20514;-77
2024/02/15 01:27:36;;;;;;;0.50;0.50;;;15.20;73.40;;;;;;4648132;30;20435;-77
2024/02/15 01:30:20;;;;;;;0.60;0.60;;;15.20;73.50;;;;;;4651038;30;20089;-76
2024/02/15 01:33:05;;;;;;;0.60;0.45;;;15.20;73.40;;;;;;4639747;30;20544;-76
2024/02/15 01:35:49;;;;;;;2.50;2.08;;;15.20;73.50;;;;;;4652932;30;20881;-76
2024/02/15 01:38:34;;;;;;;0.70;0.40;;;15.20;73.50;;;;;;4638160;30;20391;-76
2024/02/15 01:41:19;;;;;;;0.50;0.50;;;15.20;73.50;;;;;;4653274;30;20055;-78
2024/02/15 01:44:06;;;;;;;1.33;0.70;;;15.20;73.50;;;;;;4654289;30;20058;-78
2024/02/15 01:46:55;;;;;;;0.32;0.32;;;15.20;73.50;;;;;;4625197;30;20530;-77
2024/02/15 01:49:41;;;;;;;0.77;0.50;;;15.20;73.50;;;;;;4633890;30;20069;-77
2024/02/15 01:52:25;;;;;;;0.73;0.50;;;15.20;73.60;;;;;;4633559;30;20096;-77
2024/02/15 01:55:11;;;;;;;0.57;0.40;;;15.20;73.60;;;;;;4640565;30;20396;-77
2024/02/15 01:57:56;;;;;;;0.75;0.68;;;15.20;74.10;;;;;;4648405;30;20075;-77
2024/02/15 02:00:40;;;;;;;0.60;0.60;;;15.20;73.60;;;;;;4649749;30;20396;-78
2024/02/15 02:03:25;;;;;;;0.45;0.40;;;15.20;73.60;;;;;;4625656;30;20605;-77
2024/02/15 02:06:10;;;;;;;0.57;0.52;;;15.20;73.60;;;;;;4630015;30;20089;-77
2024/02/15 02:08:56;;;;;;;1.23;0.70;;;15.20;73.60;;;;;;4638484;30;20141;-77
2024/02/15 02:11:44;;;;;;;0.55;0.40;;;15.10;73.50;;;;;;4650820;30;20058;-77
2024/02/15 02:14:30;;;;;;;0.40;0.40;;;15.20;73.70;;;;;;4650145;30;20065;-80
2024/02/15 02:17:14;;;;;;;0.52;0.52;;;15.10;73.60;;;;;;4648972;30;20510;-78
2024/02/15 02:19:59;;;;;;;1.50;0.60;;;15.10;74.10;;;;;;4637976;30;20057;-78
2024/02/15 02:22:50;;;;;;;0.88;0.88;;;15.10;73.60;;;;;;4651358;30;20053;-79
2024/02/15 02:25:35;;;;;;;0.68;0.68;;;15.10;73.70;;;;;;4634195;30;20073;-78
2024/02/15 02:28:21;;;;;;;0.70;0.40;;;15.10;73.60;;;;;;4642455;30;20143;-78
2024/02/15 02:31:06;;;;;;;0.55;0.50;;;15.10;73.70;;;;;;4654706;30;20057;-79
2024/02/15 02:33:53;;;;;;;0.43;0.43;;;15.10;73.70;;;;;;4640348;30;20046;-78
2024/02/15 02:36:37;;;;;;;0.77;0.52;;;15.10;73.70;;;;;;4638425;30;20143;-78
2024/02/15 02:39:22;;;;;;;0.55;0.50;;;15.10;73.70;;;;;;4641930;30;20050;-78
2024/02/15 02:42:08;;;;;;;0.45;0.45;;;15.10;73.70;;;;;;4649112;30;20054;-79
2024/02/15 02:44:52;;;;;;;0.50;0.50;;;15.10;73.70;;;;;;4624122;30;20336;-77
2024/02/15 02:47:37;;;;;;;0.85;0.68;;;15.10;73.80;;;;;;4654705;30;20158;-78
2024/02/15 02:50:25;;;;;;;0.63;0.63;;;15.10;73.80;;;;;;4646384;30;21512;-77
2024/02/15 02:53:10;;;;;;;1.58;0.60;;;15.10;73.80;;;;;;4654918;30;20174;-77
2024/02/15 02:55:56;;;;;;;0.50;0.50;;;15.10;73.80;;;;;;4652369;30;20053;-77
2024/02/15 02:58:43;;;;;;;0.50;0.50;;;15.10;73.80;;;;;;4642406;30;20130;-77
2024/02/15 03:01:28;;;;;;;0.60;0.60;;;15.10;73.80;;;;;;4653269;30;20082;-77
2024/02/15 03:04:16;;;;;;;1.20;0.73;;;15.10;73.80;;;;;;4640464;30;20160;-77
2024/02/15 03:07:01;;;;;;;0.63;0.63;;;15.10;73.90;;;;;;4640324;30;20741;-76
2024/02/15 03:09:46;;;;;;;0.40;0.40;;;15.10;73.90;;;;;;4656291;30;20062;-76
2024/02/15 03:12:31;;;;;;;0.70;0.70;;;15.10;73.90;;;;;;4641528;30;20041;-77
2024/02/15 03:15:17;;;;;;;0.75;0.75;;;15.10;73.90;;;;;;4639951;30;20089;-77
2024/02/15 03:18:06;;;;;;;0.52;0.52;;;15.10;73.90;;;;;;4655383;30;20049;-77
2024/02/15 03:20:51;;;;;;;0.60;0.60;;;15.10;74.00;;;;;;4635810;30;20555;-77
2024/02/15 03:23:37;;;;;;;0.50;0.50;;;15.10;74.00;;;;;;4649410;30;20423;-77
2024/02/15 03:26:38;;;;;;;0.45;0.45;;;15.10;74.10;;;;;;4643324;30;20042;-77
2024/02/15 03:29:22;;;;;;;0.50;0.50;;;15.10;74.10;;;;;;4637274;30;20478;-76
2024/02/15 03:32:07;;;;;;;0.40;0.40;;;15.10;74.10;;;;;;4649862;30;20128;-77
2024/02/15 03:34:51;;;;;;;0.77;0.65;;;15.10;74.10;;;;;;4644733;30;20049;-76
2024/02/15 03:37:38;;;;;;;1.10;0.70;;;15.10;74.10;;;;;;4662802;30;20065;-77
2024/02/15 03:40:26;;;;;;;0.50;0.50;;;15.10;74.10;;;;;;4657741;30;20081;-77
2024/02/15 03:43:12;;;;;;;0.70;0.63;;;15.10;74.20;;;;;;4647709;30;20057;-77
2024/02/15 03:45:58;;;;;;;0.45;0.45;;;15.10;74.20;;;;;;4659554;30;20046;-77
2024/02/15 03:48:46;;;;;;;0.43;0.40;;;15.10;74.10;;;;;;4653671;30;20077;-77
2024/02/15 03:51:32;;;;;;;0.40;0.40;;;15.10;74.10;;;;;;4658250;30;20057;-77
2024/02/15 03:54:17;;;;;;;0.60;0.60;;;15.10;74.10;;;;;;4639322;30;20354;-77
2024/02/15 03:57:01;;;;;;;0.65;0.65;;;15.10;74.20;;;;;;4654693;30;20100;-78
2024/02/15 03:59:50;;;;;;;0.70;0.60;;;15.10;74.20;;;;;;4640690;30;20153;-77
2024/02/15 04:02:35;;;;;;;0.55;0.55;;;15.10;74.20;;;;;;4654566;30;20636;-77
2024/02/15 04:05:23;;;;;;;0.40;0.40;;;15.10;74.20;;;;;;4652151;30;20056;-76
2024/02/15 04:08:07;;;;;;;0.60;0.60;;;15.10;74.20;;;;;;4646239;30;20072;-77
2024/02/15 04:10:53;;;;;;;0.63;0.63;;;15.10;74.20;;;;;;4645753;30;20416;-76
2024/02/15 04:13:38;;;;;;;0.68;0.68;;;15.10;74.30;;;;;;4644052;30;20052;-77
2024/02/15 04:16:23;;;;;;;0.95;0.60;;;15.10;74.30;;;;;;4659448;30;20237;-78
2024/02/15 04:19:08;;;;;;;0.60;0.60;;;15.00;74.10;;;;;;4645769;30;20058;-77
2024/02/15 04:21:55;;;;;;;0.70;0.60;;;15.00;74.20;;;;;;4645206;30;20473;-76
2024/02/15 04:24:39;;;;;;;0.70;0.68;;;15.10;74.40;;;;;;4653641;30;20506;-76
2024/02/15 04:27:24;;;;;;;0.50;0.50;;;15.10;74.40;;;;;;4644420;30;20479;-76
2024/02/15 04:30:09;;;;;;;0.77;0.77;;;15.10;74.40;;;;;;4651031;30;20495;-76
2024/02/15 04:32:53;;;;;;;0.70;0.70;;;15.10;74.40;;;;;;4659474;30;20113;-76
2024/02/15 04:35:38;;;;;;;0.82;0.70;;;15.10;74.40;;;;;;4651592;30;20129;-75
2024/02/15 04:38:24;;;;;;;0.60;0.55;;;15.10;74.40;;;;;;4645940;30;20049;-76
2024/02/15 04:41:10;;;;;;;0.98;0.70;;;15.10;74.50;;;;;;4658275;30;20535;-75
2024/02/15 04:43:54;;;;;;;0.65;0.57;;;15.10;74.50;;;;;;4648226;30;20503;-77
2024/02/15 04:46:40;;;;;;;0.93;0.77;;;15.00;74.30;;;;;;4656595;30;20057;-78
2024/02/15 04:49:25;;;;;;;0.52;0.52;;;15.10;74.50;;;;;;4649976;30;20097;-76
2024/02/15 04:52:11;;;;;;;1.15;0.88;;;15.00;74.30;;;;;;4640285;30;20137;-78
2024/02/15 04:54:58;;;;;;;0.82;0.50;;;15.10;74.50;;;;;;4642224;30;20053;-78
2024/02/15 04:57:42;;;;;;;1.35;1.23;;;15.10;74.50;;;;;;4641306;30;20046;-78
2024/02/15 05:00:28;;;;;;;0.60;0.60;;;15.10;74.50;;;;;;4639842;30;20474;-78
2024/02/15 05:03:13;;;;;;;1.10;0.65;;;15.10;74.60;;;;;;4655186;30;20452;-78
2024/02/15 05:05:57;;;;;;;0.60;0.60;;;15.10;74.60;;;;;;4654086;30;20045;-78
2024/02/15 05:08:42;;;;;;;0.85;0.73;;;15.10;74.60;;;;;;4658647;30;20046;-78
2024/02/15 05:11:28;;;;;;;2.33;1.00;;;15.10;74.60;;;;;;4657721;30;20077;-78
2024/02/15 05:14:19;;;;;;;1.15;1.00;;;15.00;74.40;;;;;;4649796;30;20055;-78
2024/02/15 05:17:04;;;;;;;1.40;1.30;;;15.10;74.70;;;;;;4656375;30;20124;-78
2024/02/15 05:19:49;;;;;;;0.80;0.80;;;15.00;74.50;;;;;;4629442;30;20050;-78
2024/02/15 05:22:35;;;;;;;1.85;0.93;;;15.00;74.50;;;;;;4645387;30;20054;-78
2024/02/15 05:25:23;;;;;;;2.22;0.90;;;15.10;74.70;;;;;;4645131;30;20451;-77
2024/02/15 05:28:08;;;;;;;2.00;1.10;;;15.00;74.50;;;;;;4658606;30;20073;-78
2024/02/15 05:31:28;;;;;;;1.30;0.73;;;15.10;74.80;;;;;;4658836;30;20053;-77
2024/02/15 05:34:14;;;;;;;1.20;0.93;;;15.00;74.60;;;;;;4605418;31;20047;-76
2024/02/15 05:36:58;;;;;;;3.50;1.50;;;15.00;74.50;;;;;;4653323;30;20121;-76
2024/02/15 05:39:43;;;;;;;2.83;1.38;;;15.10;74.70;;;;;;4646025;30;20073;-75
2024/02/15 05:42:27;;;;;;;2.08;1.25;;;15.10;74.80;;;;;;4659468;30;20105;-75
2024/02/15 05:45:29;;;;;;;2.08;1.13;;;15.10;74.80;;;;;;4645447;30;20053;-76
2024/02/15 05:48:13;;;;;;;1.65;1.08;;;15.10;74.80;;;;;;4650154;30;20048;-76
2024/02/15 05:50:59;;;;;;;2.03;1.00;;;15.10;74.80;;;;;;4653995;30;20094;-76
2024/02/15 05:53:44;;;;;;;3.15;1.45;;;15.10;74.80;;;;;;4644128;30;20111;-76
2024/02/15 05:56:29;;;;;;;1.98;1.55;;;15.10;74.80;;;;;;4652570;30;20045;-77
2024/02/15 05:59:15;;;;;;;2.03;1.20;;;15.10;74.80;;;;;;4660370;30;20108;-77
2024/02/15 06:01:59;;;;;;;1.90;1.13;;;15.10;74.90;;;;;;4650214;30;20076;-77
2024/02/15 06:04:44;;;;;;;2.92;1.20;;;15.10;74.90;;;;;;4644365;30;20052;-77
2024/02/15 06:07:29;;;;;;;1.75;1.50;;;15.10;74.90;;;;;;4655120;30;20116;-77
2024/02/15 06:10:14;;;;;;;3.33;1.73;;;15.10;75.00;;;;;;4649278;30;20097;-76
2024/02/15 06:13:01;;;;;;;3.30;1.67;;;15.10;75.00;;;;;;4646243;30;20057;-77
2024/02/15 06:15:46;;;;;;;3.08;2.10;;;15.10;75.00;;;;;;4655461;30;20054;-76
2024/02/15 06:18:33;;;;;;;2.47;1.90;;;15.10;75.00;;;;;;4652090;30;20053;-76
2024/02/15 06:21:18;;;;;;;3.58;1.63;;;15.10;75.00;;;;;;4655183;30;20097;-77
2024/02/15 06:24:03;;;;;;;2.22;1.45;;;15.10;75.00;;;;;;4652536;30;20050;-76
2024/02/15 06:26:51;;;;;;;2.85;1.63;;;15.10;75.50;;;;;;4653622;30;20136;-76
2024/02/15 06:41:48;;;;;;;4.22;2.30;;;15.10;75.00;;;;;;4650436;30;20113;-76
2024/02/15 06:44:33;;;;;;;4.47;2.50;;;15.10;75.00;;;;;;4651546;30;20470;-77
2024/02/15 06:47:19;;;;;;;5.43;2.97;;;15.20;75.20;;;;;;4651150;30;20498;-77
2024/02/15 06:50:03;;;;;;;3.58;2.10;;;15.10;75.00;;;;;;4648686;30;20097;-77
2024/02/15 06:52:49;;;;;;;5.47;3.17;;;15.20;75.30;;;;;;4640513;30;20049;-79
2024/02/15 06:55:33;;;;;;;2.67;2.33;;;15.20;75.30;;;;;;4639777;30;20535;-79
2024/02/15 06:58:18;;;;;;;5.25;2.65;;;15.20;75.30;;;;;;4654426;30;20086;-78
2024/02/15 07:01:03;;;;;;;3.88;2.33;;;15.10;75.10;;;;;;4654272;30;20129;-79
2024/02/15 07:03:47;;;;;;;5.50;3.50;;;15.10;75.20;;;;;;4640472;30;20526;-77
2024/02/15 07:06:32;;;;;;;8.48;2.90;;;15.10;75.20;;;;;;4653127;30;20070;-77
2024/02/15 07:09:19;;;;;;;6.63;2.33;;;15.10;75.20;;;;;;4627343;30;20504;-78
2024/02/15 07:12:04;;;;;;;4.40;2.53;;;15.10;75.30;;;;;;4654026;30;20061;-77
2024/02/15 07:14:49;;;;;;;4.78;2.88;;;15.10;75.30;;;;;;4654111;30;20515;-78
2024/02/15 07:17:34;;;;;;;5.65;2.95;;;15.10;75.30;;;;;;4652710;30;20049;-77
2024/02/15 07:20:19;;;;;;;7.60;2.90;;;15.10;75.30;;;;;;4651737;30;20058;-77
2024/02/15 07:23:05;;;;;;;4.28;2.88;;;15.10;75.30;;;;;;4652722;30;20674;-78
2024/02/15 07:25:53;;;;;;;8.48;3.25;;;15.10;75.30;;;;;;4648653;30;20174;-77
2024/02/15 07:28:38;;;;;;;5.57;2.58;;;15.10;75.30;;;;;;4651800;30;20045;-78
2024/02/15 07:31:27;;;;;;;3.53;2.70;;;15.10;75.30;;;;;;4655860;30;20121;-76
2024/02/15 07:34:12;;;;;;;5.78;2.80;;;15.10;75.60;;;;;;4653462;30;20073;-77
2024/02/15 07:36:59;;;;;;;5.78;3.63;;;15.10;75.30;;;;;;4653282;30;20408;-77
2024/02/15 07:39:44;;;;;;;4.72;3.03;;;15.10;75.30;;;;;;4640976;30;20049;-74
2024/02/15 07:42:29;;;;;;;6.15;2.70;;;15.10;75.30;;;;;;4630362;30;20077;-76
2024/02/15 07:45:14;;;;;;;11.70;3.88;;;15.10;75.30;;;;;;4637026;30;20139;-75
2024/02/15 07:47:58;;;;;;;7.18;2.22;;;15.10;75.30;;;;;;4653235;30;20233;-75
2024/02/15 07:50:44;;;;;;;11.57;3.55;;;15.10;75.40;;;;;;4635611;30;20061;-77
2024/02/15 07:53:29;;;;;;;3.97;1.70;;;15.00;75.30;;;;;;4644620;30;20052;-75
2024/02/15 07:56:15;;;;;;;4.40;2.08;;;15.00;75.50;;;;;;4637163;30;20053;-75
2024/02/15 07:59:00;;;;;;;6.20;2.10;;;15.00;75.70;;;;;;4651510;30;20154;-75
2024/02/15 08:01:47;;;;;;;5.15;2.08;;;15.00;75.80;;;;;;4626276;30;20111;-75
2024/02/15 08:04:34;;;;;;;6.38;3.20;;;15.00;76.00;;;;;;4637856;30;20491;-75
2024/02/15 08:07:20;;;;;;;5.00;1.80;;;15.00;76.00;;;;;;4650230;30;20041;-76
2024/02/15 08:10:08;;;;;;;3.78;1.90;;;15.00;76.10;;;;;;4649723;30;20061;-76
2024/02/15 08:12:53;;;;;;;5.32;2.08;;;15.00;76.10;;;;;;4650131;30;20058;-76
2024/02/15 08:15:38;;;;;;;9.35;2.67;;;15.10;76.30;;;;;;4649574;30;20148;-75
2024/02/15 08:18:22;;;;;;;4.90;2.08;;;15.10;76.30;;;;;;4638232;30;20050;-75
2024/02/15 08:21:07;;;;;;;7.80;2.20;;;15.10;76.40;;;;;;4627220;30;20074;-74
2024/02/15 08:23:52;;;;;;;4.72;1.42;;;15.10;76.40;;;;;;4636730;30;20535;-77
2024/02/15 08:26:38;;;;;;;3.95;1.60;;;15.10;76.50;;;;;;4648043;30;20053;-77
2024/02/15 08:29:22;;;;;;;2.60;1.70;;;15.10;76.50;;;;;;4636322;30;20506;-76
2024/02/15 08:32:07;;;;;;;5.63;1.90;;;15.10;76.50;;;;;;4648871;30;20065;-77
2024/02/15 08:34:52;;;;;;;6.53;2.00;;;15.10;76.40;;;;;;4649712;30;20061;-75
2024/02/15 08:37:37;;;;;;;8.50;2.47;;;15.20;76.50;;;;;;4640025;30;20057;-76
2024/02/15 08:40:25;;;;;;;5.13;1.45;;;15.20;76.30;;;;;;4648586;30;20061;-76
2024/02/15 08:43:09;;;;;;;7.05;1.80;;;15.20;76.20;;;;;;4649364;30;20045;-76
2024/02/15 08:45:54;;;;;;;5.65;2.40;;;15.30;76.30;;;;;;4633555;30;20056;-76
2024/02/15 08:48:39;;;;;;;3.42;1.42;;;15.20;76.00;;;;;;4634658;30;20124;-76
2024/02/15 08:51:23;;;;;;;4.50;1.55;;;15.30;76.10;;;;;;4650016;30;20176;-75
2024/02/15 08:54:08;;;;;;;3.15;1.63;;;15.30;76.00;;;;;;4652880;30;20058;-74
2024/02/15 08:56:53;;;;;;;4.47;1.70;;;15.30;76.00;;;;;;4650003;30;20061;-75
2024/02/15 08:59:42;;;;;;;4.45;2.05;;;15.40;76.10;;;;;;4636732;30;20264;-76
2024/02/15 09:02:26;;;;;;;3.17;1.70;;;15.30;75.90;;;;;;4635704;30;20408;-75
2024/02/15 09:05:14;;;;;;;4.30;2.20;;;15.40;76.00;;;;;;4650059;30;20089;-74
2024/02/15 09:07:59;;;;;;;5.28;1.80;;;15.40;75.90;;;;;;4649411;30;20057;-74
2024/02/15 09:10:43;;;;;;;4.25;2.03;;;15.50;75.90;;;;;;4636136;30;20113;-76
2024/02/15 09:13:28;;;;;;;2.55;1.23;;;15.50;75.80;;;;;;4619691;30;20094;-75
2024/02/15 09:16:13;;;;;;;5.57;1.92;;;15.60;76.30;;;;;;4639356;30;20049;-75
2024/02/15 09:19:00;;;;;;;3.92;1.70;;;15.70;75.70;;;;;;4652182;30;20096;-75
2024/02/15 09:21:44;;;;;;;3.33;1.88;;;15.70;75.60;;;;;;4658069;30;20054;-75
2024/02/15 09:24:30;;;;;;;3.13;1.77;;;15.80;75.60;;;;;;4652553;30;20138;-75
2024/02/15 09:27:14;;;;;;;3.05;1.85;;;15.80;75.40;;;;;;4634296;30;20053;-75
2024/02/15 09:29:59;;;;;;;4.45;1.70;;;15.80;75.30;;;;;;4644706;30;20054;-74
2024/02/15 09:32:44;;;;;;;3.55;2.03;;;15.90;75.40;;;;;;4645779;30;20562;-75
2024/02/15 09:35:29;;;;;;;3.63;2.13;;;15.90;75.30;;;;;;4636912;30;20106;-75
2024/02/15 09:38:16;;;;;;;3.08;1.77;;;16.00;75.30;;;;;;4653578;30;20057;-75
2024/02/15 09:41:02;;;;;;;4.22;1.90;;;15.90;75.10;;;;;;4651647;30;20136;-75
2024/02/15 09:43:48;;;;;;;6.55;1.88;;;16.00;75.20;;;;;;4657493;30;20062;-75
2024/02/15 09:46:39;;;;;;;2.90;1.75;;;16.00;75.10;;;;;;4652669;30;20110;-75
2024/02/15 09:49:23;;;;;;;3.17;1.80;;;16.00;75.00;;;;;;4646873;30;20708;-76
2024/02/15 09:52:15;;;;;;;4.00;1.70;;;16.10;75.10;;;;;;4652786;30;20676;-76
2024/02/15 09:55:02;;;;;;;2.90;1.58;;;16.00;74.80;;;;;;4654449;30;20128;-76
2024/02/15 09:57:47;;;;;;;3.30;1.60;;;16.10;74.90;;;;;;4630070;30;20435;-76
2024/02/15 10:00:34;;;;;;;2.95;1.48;;;16.10;74.80;;;;;;4637115;30;20114;-74
2024/02/15 10:03:21;;;;;;;4.53;2.33;;;16.10;74.60;;;;;;4652425;30;20162;-74
2024/02/15 10:06:06;;;;;;;3.47;1.73;;;16.20;74.80;;;;;;4653004;30;20558;-75
2024/02/15 10:08:50;;;;;;;2.55;1.50;;;16.20;74.60;;;;;;4651680;30;20140;-77
2024/02/15 10:11:35;;;;;;;6.03;3.50;;;16.20;74.50;;;;;;4644761;30;20143;-74
2024/02/15 10:14:21;;;;;;;3.85;2.45;;;16.20;74.40;;;;;;4638350;30;20558;-74
2024/02/15 10:17:12;;;;;;;3.20;1.90;;;16.30;74.80;;;;;;4638887;30;20147;-77
2024/02/15 10:20:03;;;;;;;2.13;1.60;;;16.30;74.40;;;;;;4651826;30;20072;-74
2024/02/15 10:22:48;;;;;;;2.75;2.25;;;16.30;74.20;;;;;;4651019;30;20112;-75
2024/02/15 10:25:33;;;;;;;3.70;1.95;;;16.30;74.10;;;;;;4648880;30;20076;-74
2024/02/15 10:28:23;;;;;;;2.65;1.60;;;16.40;74.20;;;;;;4653866;30;20052;-77
2024/02/15 10:31:08;;;;;;;3.00;1.83;;;16.40;74.10;;;;;;4651722;30;20461;-74
2024/02/15 10:33:53;;;;;;;2.78;1.50;;;16.50;74.10;;;;;;4634428;30;20049;-74
2024/02/15 10:36:37;;;;;;;5.32;1.67;;;16.60;74.20;;;;;;4636357;30;20546;-75
2024/02/15 10:39:23;;;;;;;2.03;1.45;;;16.60;74.10;;;;;;4650782;30;20128;-75
2024/02/15 10:42:11;;;;;;;6.72;1.77;;;16.60;73.80;;;;;;4651379;30;20073;-75
2024/02/15 10:44:56;;;;;;;3.65;1.88;;;16.70;74.00;;;;;;4632684;30;20538;-74
2024/02/15 10:47:40;;;;;;;2.13;1.65;;;16.70;73.80;;;;;;4641345;30;20054;-75
2024/02/15 10:50:26;;;;;;;4.57;2.33;;;16.80;73.80;;;;;;4649495;30;20313;-76
2024/02/15 10:53:33;;;;;;;5.13;1.70;;;16.90;73.80;;;;;;4653709;30;20124;-76
2024/02/15 10:56:23;;;;;;;1.80;1.33;;;16.90;73.70;;;;;;4634397;30;20114;-75
2024/02/15 10:59:16;;;;;;;4.38;1.92;;;16.90;73.60;;;;;;4653139;30;20601;-76
2024/02/15 11:02:04;;;;;;;2.95;1.35;;;16.90;73.50;;;;;;4651240;30;20053;-74
2024/02/15 11:04:56;;;;;;;3.47;1.83;;;17.00;73.70;;;;;;4654623;30;20057;-74
2024/02/15 11:07:41;;;;;;;2.13;1.70;;;16.90;73.40;;;;;;4650472;30;20313;-75
2024/02/15 11:10:27;;;;;;;3.50;1.60;;;17.00;73.60;;;;;;4649801;30;20307;-74
2024/02/15 11:13:13;;;;;;;2.15;1.30;;;17.00;73.50;;;;;;4654469;30;20158;-74
2024/02/15 11:15:58;;;;;;;2.65;1.60;;;17.00;73.40;;;;;;4646868;30;20547;-75
2024/02/15 11:18:48;;;;;;;4.60;1.85;;;17.00;73.40;;;;;;4651300;30;20085;-74
2024/02/15 11:22:10;;;;;;;2.92;1.70;;;17.00;73.30;;;;;;4641619;30;20053;-75
2024/02/15 11:24:56;;;;;;;5.13;3.00;;;17.00;73.20;;;;;;4638762;30;20507;-76
2024/02/15 11:27:41;;;;;;;3.50;1.80;;;17.10;73.30;;;;;;4638643;30;20053;-75
2024/02/15 11:30:32;;;;;;;4.43;2.10;;;17.10;73.20;;;;;;4634827;30;20141;-75
2024/02/15 11:33:31;;;;;;;3.42;1.67;;;17.10;73.10;;;;;;4655083;30;20928;-74
2024/02/15 11:36:16;;;;;;;2.80;1.20;;;17.20;73.20;;;;;;4645176;30;20137;-74
2024/02/15 11:39:21;;;;;;;2.88;2.20;;;17.20;73.20;;;;;;4643608;30;20044;-75
2024/02/15 11:42:30;;;;;;;2.63;1.50;;;17.20;73.10;;;;;;4647446;30;20602;-76
2024/02/15 11:45:19;;;;;;;1.85;1.45;;;17.30;73.00;;;;;;4635501;30;20199;-74
2024/02/15 11:48:07;;;;;;;2.58;1.70;;;17.30;72.90;;;;;;4647629;30;20607;-74
2024/02/15 11:50:51;;;;;;;4.03;1.88;;;17.40;72.80;;;;;;4646069;30;20105;-74
2024/02/15 11:53:37;;;;;;;2.33;1.48;;;17.60;72.90;;;;;;4650201;30;20175;-74
2024/02/15 11:56:22;;;;;;;2.47;2.08;;;17.70;72.90;;;;;;4635485;30;20049;-74
2024/02/15 11:59:08;;;;;;;7.80;2.45;;;17.80;72.90;;;;;;4658515;30;20291;-78
2024/02/15 12:20:24;;;;;;;8.27;2.53;;;18.10;73.50;;;;;;4652765;30;20053;-78
2024/02/15 12:23:11;;;;;;;10.10;2.78;;;18.10;73.40;;;;;;4649595;30;20416;-78
2024/02/15 12:25:55;;;;;;;6.53;2.33;;;18.10;73.30;;;;;;4649167;30;20050;-77
2024/02/15 12:28:42;;;;;;;8.60;3.00;;;18.20;73.30;;;;;;4653434;30;20460;-78
2024/02/15 12:31:27;;;;;;;11.15;4.28;;;18.30;73.40;;;;;;4637488;30;20476;-77
2024/02/15 12:34:13;;;;;;;6.93;3.60;;;18.40;73.40;;;;;;4637199;30;20593;-77
2024/02/15 12:37:08;;;;;;;4.80;2.55;;;18.50;73.40;;;;;;4636625;30;20057;-77
2024/02/15 12:39:53;;;;;;;8.05;3.42;;;18.60;73.30;;;;;;4643621;30;20124;-78
2024/02/15 12:42:41;;;;;;;4.38;2.72;;;18.60;73.10;;;;;;4649494;30;20418;-78
2024/02/15 12:45:30;;;;;;;6.25;2.80;;;18.80;73.10;;;;;;4648233;30;20049;-81
2024/02/15 12:48:15;;;;;;;7.55;2.80;;;18.80;72.80;;;;;;4644545;30;20081;-78
2024/02/15 12:51:12;;;;;;;5.10;3.03;;;19.00;73.30;;;;;;4632826;30;20085;-78
2024/02/15 12:54:08;;;;;;;5.60;3.08;;;19.10;72.70;;;;;;4648385;30;20101;-77
2024/02/15 12:57:09;;;;;;;6.13;2.90;;;19.20;72.50;;;;;;4648942;30;20078;-77
2024/02/15 12:59:53;;;;;;;5.13;2.85;;;19.30;72.40;;;;;;4650410;30;20581;-77
2024/02/15 13:02:38;;;;;;;4.70;3.00;;;19.40;72.40;;;;;;4651740;30;20049;-77
2024/02/15 13:05:26;;;;;;;5.95;3.15;;;19.50;72.30;;;;;;4636897;30;20074;-78
2024/02/15 13:08:13;;;;;;;5.50;3.00;;;19.70;72.40;;;;;;4651912;30;20049;-79
2024/02/15 13:10:57;;;;;;;8.95;3.15;;;19.70;72.10;;;;;;4637924;30;20153;-80
2024/02/15 13:13:42;;;;;;;3.80;2.65;;;19.80;72.00;;;;;;4634756;30;20383;-78
2024/02/15 13:16:28;;;;;;;5.72;2.67;;;19.80;71.90;;;;;;4637544;30;20122;-79
2024/02/15 13:19:12;;;;;;;5.30;3.20;;;19.90;71.90;;;;;;4650590;30;20053;-78
2024/02/15 13:21:57;;;;;;;5.45;2.40;;;19.90;71.80;;;;;;4649113;30;20106;-79
2024/02/15 13:24:42;;;;;;;5.57;2.50;;;19.90;71.80;;;;;;4625091;30;20077;-78
2024/02/15 13:27:26;;;;;;;3.97;2.35;;;20.00;71.80;;;;;;4650863;30;20045;-79
2024/02/15 13:30:12;;;;;;;6.07;3.13;;;20.10;71.70;;;;;;4646993;30;20144;-79
2024/02/15 13:32:57;;;;;;;5.47;2.25;;;20.20;71.50;;;;;;4635981;30;20073;-77
2024/02/15 13:35:42;;;;;;;4.25;2.78;;;20.30;71.40;;;;;;4647424;30;20054;-75
2024/02/15 13:38:28;;;;;;;5.45;2.50;;;20.40;71.40;;;;;;4637235;30;20168;-77
2024/02/15 13:41:12;;;;;;;5.40;2.83;;;20.50;71.40;;;;;;4648431;30;20048;-79
2024/02/15 13:43:57;;;;;;;4.38;2.17;;;20.50;71.10;;;;;;4638766;30;20337;-77
2024/02/15 13:46:42;;;;;;;4.10;2.25;;;20.60;71.10;;;;;;4648191;30;20065;-79
2024/02/15 13:49:30;;;;;;;9.57;3.22;;;20.60;71.00;;;;;;4617752;30;20593;-78
2024/02/15 13:52:16;;;;;;;4.22;2.28;;;20.60;71.00;;;;;;4635918;30;20381;-76
2024/02/15 13:55:00;;;;;;;4.97;2.63;;;20.60;71.00;;;;;;4639122;30;20045;-76
2024/02/15 13:57:47;;;;;;;3.83;2.45;;;20.50;70.90;;;;;;4647955;30;20065;-78
2024/02/15 14:00:36;;;;;;;6.35;2.53;;;20.50;70.80;;;;;;4650294;30;20472;-80
2024/02/15 14:03:21;;;;;;;5.30;2.63;;;20.50;70.80;;;;;;4632825;30;20105;-79
2024/02/15 14:06:06;;;;;;;4.15;2.10;;;20.50;70.80;;;;;;4636203;30;20057;-79
2024/02/15 14:08:50;;;;;;;5.53;1.92;;;20.50;70.70;;;;;;4654947;30;20053;-78
2024/02/15 14:11:35;;;;;;;5.57;3.22;;;20.50;70.60;;;;;;4641450;30;20069;-78
2024/02/15 14:14:21;;;;;;;4.97;2.10;;;20.50;70.60;;;;;;4640881;30;20311;-79
2024/02/15 14:17:05;;;;;;;5.18;2.47;;;20.50;70.60;;;;;;4641118;30;20120;-80
2024/02/15 14:19:50;;;;;;;5.72;2.70;;;20.50;70.70;;;;;;4652614;30;20081;-77
2024/02/15 14:22:35;;;;;;;5.80;2.90;;;20.40;70.50;;;;;;4653856;30;20546;-78
2024/02/15 14:25:27;;;;;;;4.57;2.33;;;20.30;70.50;;;;;;4639909;30;20296;-77
2024/02/15 14:28:12;;;;;;;3.40;2.58;;;20.20;70.50;;;;;;4651479;30;20474;-80
2024/02/15 14:34:00;;;;;;;6.10;2.90;;;20.00;70.60;;;;;;4640461;30;20448;-82
2024/02/15 14:36:45;;;;;;;4.97;2.38;;;19.90;70.70;;;;;;4653125;30;20089;-81
2024/02/15 14:39:30;;;;;;;5.05;2.17;;;19.80;70.80;;;;;;4653342;30;20118;-81
2024/02/15 14:42:14;;;;;;;6.97;2.97;;;19.70;70.80;;;;;;4652842;30;20097;-77
2024/02/15 14:44:58;;;;;;;6.28;3.05;;;19.70;70.90;;;;;;4650846;30;20566;-80
2024/02/15 14:47:43;;;;;;;5.22;2.20;;;19.60;70.90;;;;;;4650846;30;20116;-78
2024/02/15 14:50:28;;;;;;;6.97;3.20;;;19.50;70.80;;;;;;4647145;30;20062;-77
2024/02/15 14:53:13;;;;;;;4.85;2.13;;;19.50;71.00;;;;;;4654570;30;20057;-77
2024/02/15 14:55:57;;;;;;;7.22;3.08;;;19.40;71.00;;;;;;4651691;30;20077;-76
2024/02/15 14:58:43;;;;;;;7.43;2.80;;;19.30;71.00;;;;;;4652781;30;20577;-76